sensor_id;sensor_type;location;lat;lon;timestamp;P1;durP1;ratioP1;P2;durP2;ratioP2
9115;SDS011;4593;53.652;10.168;2023-06-22T00:00:56;3.20;;;2.40;;
9115;SDS011;4593;53.652;10.168;2023-06-22T00:03:23;2.40;;;2.13;;
9115;SDS011;4593;53.652;10.168;2023-06-22T00:05:50;3.13;;;2.70;;
9115;SDS011;4593;53.652;10.168;2023-06-22T00:08:16;3.53;;;2.60;;
9115;SDS011;4593;53.652;10.168;2023-06-22T00:10:43;2.97;;;2.50;;
9115;SDS011;4593;53.652;10.168;2023-06-22T00:13:09;4.07;;;2.80;;
9115;SDS011;4593;53.652;10.168;2023-06-22T00:15:36;2.90;;;2.60;;
9115;SDS011;4593;53.652;10.168;2023-06-22T00:18:03;3.30;;;2.80;;
9115;SDS011;4593;53.652;10.168;2023-06-22T00:20:30;3.80;;;2.70;;
9115;SDS011;4593;53.652;10.168;2023-06-22T00:22:56;3.27;;;2.90;;
9115;SDS011;4593;53.652;10.168;2023-06-22T00:25:22;3.70;;;2.87;;
9115;SDS011;4593;53.652;10.168;2023-06-22T00:27:48;4.00;;;2.87;;
9115;SDS011;4593;53.652;10.168;2023-06-22T00:30:17;3.83;;;2.70;;
9115;SDS011;4593;53.652;10.168;2023-06-22T00:32:44;3.80;;;3.03;;
9115;SDS011;4593;53.652;10.168;2023-06-22T00:35:10;3.27;;;2.77;;
9115;SDS011;4593;53.652;10.168;2023-06-22T00:37:39;3.57;;;3.13;;
9115;SDS011;4593;53.652;10.168;2023-06-22T00:40:11;5.80;;;2.63;;
9115;SDS011;4593;53.652;10.168;2023-06-22T00:42:40;3.33;;;2.90;;
9115;SDS011;4593;53.652;10.168;2023-06-22T00:45:06;3.27;;;2.70;;
9115;SDS011;4593;53.652;10.168;2023-06-22T00:47:36;2.83;;;2.60;;
9115;SDS011;4593;53.652;10.168;2023-06-22T00:50:03;3.33;;;2.97;;
9115;SDS011;4593;53.652;10.168;2023-06-22T00:52:32;3.73;;;2.93;;
9115;SDS011;4593;53.652;10.168;2023-06-22T00:55:00;3.50;;;2.97;;
9115;SDS011;4593;53.652;10.168;2023-06-22T00:57:27;3.27;;;2.87;;
9115;SDS011;4593;53.652;10.168;2023-06-22T00:59:53;3.20;;;2.90;;
9115;SDS011;4593;53.652;10.168;2023-06-22T01:02:19;4.97;;;2.90;;
9115;SDS011;4593;53.652;10.168;2023-06-22T01:04:45;4.03;;;3.17;;
9115;SDS011;4593;53.652;10.168;2023-06-22T01:10:03;3.80;;;2.77;;
9115;SDS011;4593;53.652;10.168;2023-06-22T01:12:38;4.60;;;3.03;;
9115;SDS011;4593;53.652;10.168;2023-06-22T01:15:21;4.03;;;2.80;;
9115;SDS011;4593;53.652;10.168;2023-06-22T01:17:56;3.10;;;2.80;;
9115;SDS011;4593;53.652;10.168;2023-06-22T01:20:23;2.60;;;2.40;;
9115;SDS011;4593;53.652;10.168;2023-06-22T01:25:28;2.97;;;2.67;;
9115;SDS011;4593;53.652;10.168;2023-06-22T01:30:45;3.20;;;2.90;;
9115;SDS011;4593;53.652;10.168;2023-06-22T01:33:13;4.73;;;3.50;;
9115;SDS011;4593;53.652;10.168;2023-06-22T01:35:40;5.40;;;3.20;;
9115;SDS011;4593;53.652;10.168;2023-06-22T01:38:06;4.30;;;3.37;;
9115;SDS011;4593;53.652;10.168;2023-06-22T01:40:33;3.00;;;2.60;;
9115;SDS011;4593;53.652;10.168;2023-06-22T01:43:00;3.27;;;2.97;;
9115;SDS011;4593;53.652;10.168;2023-06-22T01:45:27;4.80;;;3.27;;
9115;SDS011;4593;53.652;10.168;2023-06-22T01:47:53;2.93;;;2.70;;
9115;SDS011;4593;53.652;10.168;2023-06-22T01:50:20;3.23;;;2.77;;
9115;SDS011;4593;53.652;10.168;2023-06-22T01:52:46;4.73;;;3.10;;
9115;SDS011;4593;53.652;10.168;2023-06-22T01:55:12;3.37;;;3.07;;
9115;SDS011;4593;53.652;10.168;2023-06-22T01:57:38;4.00;;;2.93;;
9115;SDS011;4593;53.652;10.168;2023-06-22T02:00:04;3.07;;;2.63;;
9115;SDS011;4593;53.652;10.168;2023-06-22T02:02:38;3.97;;;3.13;;
9115;SDS011;4593;53.652;10.168;2023-06-22T02:05:15;3.67;;;2.70;;
9115;SDS011;4593;53.652;10.168;2023-06-22T02:07:44;3.43;;;2.50;;
9115;SDS011;4593;53.652;10.168;2023-06-22T02:10:15;3.27;;;2.97;;
9115;SDS011;4593;53.652;10.168;2023-06-22T02:12:43;3.10;;;2.80;;
9115;SDS011;4593;53.652;10.168;2023-06-22T02:15:10;2.93;;;2.57;;
9115;SDS011;4593;53.652;10.168;2023-06-22T02:17:37;3.63;;;2.90;;
9115;SDS011;4593;53.652;10.168;2023-06-22T02:20:03;3.87;;;3.47;;
9115;SDS011;4593;53.652;10.168;2023-06-22T02:22:32;5.40;;;3.07;;
9115;SDS011;4593;53.652;10.168;2023-06-22T02:24:58;3.83;;;3.10;;
9115;SDS011;4593;53.652;10.168;2023-06-22T02:27:24;3.60;;;2.60;;
9115;SDS011;4593;53.652;10.168;2023-06-22T02:29:49;4.03;;;2.90;;
9115;SDS011;4593;53.652;10.168;2023-06-22T02:32:15;3.60;;;2.80;;
9115;SDS011;4593;53.652;10.168;2023-06-22T02:34:42;3.97;;;3.10;;
9115;SDS011;4593;53.652;10.168;2023-06-22T02:37:12;3.23;;;2.90;;
9115;SDS011;4593;53.652;10.168;2023-06-22T02:39:41;4.20;;;3.10;;
9115;SDS011;4593;53.652;10.168;2023-06-22T02:42:06;4.57;;;3.40;;
9115;SDS011;4593;53.652;10.168;2023-06-22T02:44:32;4.10;;;3.60;;
9115;SDS011;4593;53.652;10.168;2023-06-22T02:46:58;3.57;;;3.27;;
9115;SDS011;4593;53.652;10.168;2023-06-22T02:49:23;6.13;;;3.53;;
9115;SDS011;4593;53.652;10.168;2023-06-22T02:51:49;3.60;;;2.93;;
9115;SDS011;4593;53.652;10.168;2023-06-22T02:54:15;3.50;;;3.20;;
9115;SDS011;4593;53.652;10.168;2023-06-22T02:56:41;3.77;;;3.40;;
9115;SDS011;4593;53.652;10.168;2023-06-22T02:59:09;3.97;;;3.33;;
9115;SDS011;4593;53.652;10.168;2023-06-22T03:01:36;3.37;;;2.97;;
9115;SDS011;4593;53.652;10.168;2023-06-22T03:04:07;4.20;;;3.13;;
9115;SDS011;4593;53.652;10.168;2023-06-22T03:06:34;3.10;;;2.80;;
9115;SDS011;4593;53.652;10.168;2023-06-22T03:09:01;3.53;;;3.10;;
9115;SDS011;4593;53.652;10.168;2023-06-22T03:11:33;4.37;;;3.00;;
9115;SDS011;4593;53.652;10.168;2023-06-22T03:14:00;5.37;;;2.97;;
9115;SDS011;4593;53.652;10.168;2023-06-22T03:16:26;4.67;;;3.63;;
9115;SDS011;4593;53.652;10.168;2023-06-22T03:18:52;4.10;;;3.70;;
9115;SDS011;4593;53.652;10.168;2023-06-22T03:21:22;4.77;;;3.53;;
9115;SDS011;4593;53.652;10.168;2023-06-22T03:23:47;4.63;;;3.60;;
9115;SDS011;4593;53.652;10.168;2023-06-22T03:26:16;4.27;;;3.47;;
9115;SDS011;4593;53.652;10.168;2023-06-22T03:28:42;4.27;;;3.70;;
9115;SDS011;4593;53.652;10.168;2023-06-22T03:31:08;4.40;;;3.53;;
9115;SDS011;4593;53.652;10.168;2023-06-22T03:33:33;5.57;;;3.50;;
9115;SDS011;4593;53.652;10.168;2023-06-22T03:35:59;5.50;;;4.27;;
9115;SDS011;4593;53.652;10.168;2023-06-22T03:38:25;4.53;;;3.73;;
9115;SDS011;4593;53.652;10.168;2023-06-22T03:40:50;3.83;;;3.17;;
9115;SDS011;4593;53.652;10.168;2023-06-22T03:43:16;5.30;;;3.90;;
9115;SDS011;4593;53.652;10.168;2023-06-22T03:45:42;4.43;;;3.83;;
9115;SDS011;4593;53.652;10.168;2023-06-22T03:48:10;4.93;;;4.10;;
9115;SDS011;4593;53.652;10.168;2023-06-22T03:50:36;4.97;;;3.90;;
9115;SDS011;4593;53.652;10.168;2023-06-22T03:53:01;3.93;;;3.53;;
9115;SDS011;4593;53.652;10.168;2023-06-22T03:55:27;4.40;;;3.20;;
9115;SDS011;4593;53.652;10.168;2023-06-22T03:57:53;4.80;;;3.93;;
9115;SDS011;4593;53.652;10.168;2023-06-22T04:00:22;6.57;;;4.10;;
9115;SDS011;4593;53.652;10.168;2023-06-22T04:02:50;4.30;;;3.57;;
9115;SDS011;4593;53.652;10.168;2023-06-22T04:05:16;4.63;;;3.70;;
9115;SDS011;4593;53.652;10.168;2023-06-22T04:07:45;8.40;;;4.27;;
9115;SDS011;4593;53.652;10.168;2023-06-22T04:10:10;5.00;;;3.80;;
9115;SDS011;4593;53.652;10.168;2023-06-22T04:12:36;5.53;;;4.07;;
9115;SDS011;4593;53.652;10.168;2023-06-22T04:15:02;4.43;;;3.87;;
9115;SDS011;4593;53.652;10.168;2023-06-22T04:17:27;6.83;;;4.20;;
9115;SDS011;4593;53.652;10.168;2023-06-22T04:19:53;4.90;;;3.70;;
9115;SDS011;4593;53.652;10.168;2023-06-22T04:22:19;4.47;;;3.23;;
9115;SDS011;4593;53.652;10.168;2023-06-22T04:24:44;4.73;;;3.80;;
9115;SDS011;4593;53.652;10.168;2023-06-22T04:27:10;4.17;;;3.30;;
9115;SDS011;4593;53.652;10.168;2023-06-22T04:29:35;6.37;;;4.40;;
9115;SDS011;4593;53.652;10.168;2023-06-22T04:32:03;4.13;;;3.73;;
9115;SDS011;4593;53.652;10.168;2023-06-22T04:34:30;5.50;;;3.87;;
9115;SDS011;4593;53.652;10.168;2023-06-22T04:36:56;4.80;;;3.73;;
9115;SDS011;4593;53.652;10.168;2023-06-22T04:39:21;3.13;;;2.83;;
9115;SDS011;4593;53.652;10.168;2023-06-22T04:41:48;5.87;;;3.50;;
9115;SDS011;4593;53.652;10.168;2023-06-22T04:44:17;7.40;;;4.60;;
9115;SDS011;4593;53.652;10.168;2023-06-22T04:46:50;8.43;;;4.77;;
9115;SDS011;4593;53.652;10.168;2023-06-22T04:49:22;8.63;;;4.83;;
9115;SDS011;4593;53.652;10.168;2023-06-22T04:51:47;4.57;;;3.70;;
9115;SDS011;4593;53.652;10.168;2023-06-22T04:54:14;6.90;;;3.93;;
9115;SDS011;4593;53.652;10.168;2023-06-22T04:56:40;4.70;;;3.23;;
9115;SDS011;4593;53.652;10.168;2023-06-22T04:59:06;6.13;;;4.10;;
9115;SDS011;4593;53.652;10.168;2023-06-22T05:01:33;4.97;;;3.80;;
9115;SDS011;4593;53.652;10.168;2023-06-22T05:04:00;7.00;;;3.83;;
9115;SDS011;4593;53.652;10.168;2023-06-22T05:06:26;6.17;;;4.17;;
9115;SDS011;4593;53.652;10.168;2023-06-22T05:08:53;4.97;;;3.60;;
9115;SDS011;4593;53.652;10.168;2023-06-22T05:11:28;6.23;;;4.57;;
9115;SDS011;4593;53.652;10.168;2023-06-22T05:13:54;6.00;;;3.53;;
9115;SDS011;4593;53.652;10.168;2023-06-22T05:16:21;5.30;;;4.10;;
9115;SDS011;4593;53.652;10.168;2023-06-22T05:18:54;5.83;;;4.10;;
9115;SDS011;4593;53.652;10.168;2023-06-22T05:21:25;5.07;;;4.03;;
9115;SDS011;4593;53.652;10.168;2023-06-22T05:23:52;4.90;;;3.67;;
9115;SDS011;4593;53.652;10.168;2023-06-22T05:26:19;8.33;;;4.47;;
9115;SDS011;4593;53.652;10.168;2023-06-22T05:28:46;5.07;;;3.67;;
9115;SDS011;4593;53.652;10.168;2023-06-22T05:31:13;4.90;;;3.80;;
9115;SDS011;4593;53.652;10.168;2023-06-22T05:33:40;8.60;;;4.43;;
9115;SDS011;4593;53.652;10.168;2023-06-22T05:36:06;5.30;;;4.03;;
9115;SDS011;4593;53.652;10.168;2023-06-22T05:38:32;7.87;;;4.47;;
9115;SDS011;4593;53.652;10.168;2023-06-22T05:40:57;5.97;;;3.63;;
9115;SDS011;4593;53.652;10.168;2023-06-22T05:43:23;5.33;;;4.30;;
9115;SDS011;4593;53.652;10.168;2023-06-22T05:45:49;6.17;;;3.40;;
9115;SDS011;4593;53.652;10.168;2023-06-22T05:48:15;4.60;;;3.50;;
9115;SDS011;4593;53.652;10.168;2023-06-22T05:50:41;4.10;;;3.23;;
9115;SDS011;4593;53.652;10.168;2023-06-22T05:53:07;6.70;;;4.13;;
9115;SDS011;4593;53.652;10.168;2023-06-22T05:55:33;5.43;;;3.50;;
9115;SDS011;4593;53.652;10.168;2023-06-22T05:57:59;5.53;;;3.50;;
9115;SDS011;4593;53.652;10.168;2023-06-22T06:00:24;3.97;;;3.23;;
9115;SDS011;4593;53.652;10.168;2023-06-22T06:02:50;5.33;;;3.47;;
9115;SDS011;4593;53.652;10.168;2023-06-22T06:05:16;3.97;;;2.93;;
9115;SDS011;4593;53.652;10.168;2023-06-22T06:07:43;4.87;;;3.10;;
9115;SDS011;4593;53.652;10.168;2023-06-22T06:10:09;7.20;;;3.10;;
9115;SDS011;4593;53.652;10.168;2023-06-22T06:12:35;3.90;;;2.73;;
9115;SDS011;4593;53.652;10.168;2023-06-22T06:15:01;4.00;;;2.93;;
9115;SDS011;4593;53.652;10.168;2023-06-22T06:17:27;4.03;;;2.73;;
9115;SDS011;4593;53.652;10.168;2023-06-22T06:19:53;4.97;;;2.40;;
9115;SDS011;4593;53.652;10.168;2023-06-22T06:22:18;4.00;;;2.73;;
9115;SDS011;4593;53.652;10.168;2023-06-22T06:24:46;3.23;;;2.40;;
9115;SDS011;4593;53.652;10.168;2023-06-22T06:27:12;4.70;;;2.53;;
9115;SDS011;4593;53.652;10.168;2023-06-22T06:29:38;3.30;;;2.33;;
9115;SDS011;4593;53.652;10.168;2023-06-22T06:32:04;3.93;;;3.00;;
9115;SDS011;4593;53.652;10.168;2023-06-22T06:34:30;3.23;;;2.23;;
9115;SDS011;4593;53.652;10.168;2023-06-22T06:36:56;2.87;;;2.23;;
9115;SDS011;4593;53.652;10.168;2023-06-22T06:39:21;3.17;;;2.50;;
9115;SDS011;4593;53.652;10.168;2023-06-22T06:41:47;3.00;;;2.37;;
9115;SDS011;4593;53.652;10.168;2023-06-22T06:44:13;3.20;;;2.50;;
9115;SDS011;4593;53.652;10.168;2023-06-22T06:46:38;2.60;;;2.40;;
9115;SDS011;4593;53.652;10.168;2023-06-22T06:49:04;2.43;;;2.23;;
9115;SDS011;4593;53.652;10.168;2023-06-22T06:51:30;2.90;;;2.40;;
9115;SDS011;4593;53.652;10.168;2023-06-22T06:53:55;4.03;;;2.43;;
9115;SDS011;4593;53.652;10.168;2023-06-22T06:56:21;3.10;;;2.23;;
9115;SDS011;4593;53.652;10.168;2023-06-22T06:58:49;2.90;;;2.60;;
9115;SDS011;4593;53.652;10.168;2023-06-22T07:01:16;4.17;;;2.33;;
9115;SDS011;4593;53.652;10.168;2023-06-22T07:03:41;2.67;;;2.33;;
9115;SDS011;4593;53.652;10.168;2023-06-22T07:06:08;2.23;;;2.03;;
9115;SDS011;4593;53.652;10.168;2023-06-22T07:08:34;4.73;;;2.40;;
9115;SDS011;4593;53.652;10.168;2023-06-22T07:11:01;5.90;;;2.70;;
9115;SDS011;4593;53.652;10.168;2023-06-22T07:13:27;6.53;;;3.33;;
9115;SDS011;4593;53.652;10.168;2023-06-22T07:15:53;4.27;;;2.60;;
9115;SDS011;4593;53.652;10.168;2023-06-22T07:18:19;5.40;;;2.77;;
9115;SDS011;4593;53.652;10.168;2023-06-22T07:20:44;3.83;;;2.67;;
9115;SDS011;4593;53.652;10.168;2023-06-22T07:23:10;3.90;;;3.00;;
9115;SDS011;4593;53.652;10.168;2023-06-22T07:25:36;3.27;;;2.90;;
9115;SDS011;4593;53.652;10.168;2023-06-22T07:28:04;3.20;;;2.57;;
9115;SDS011;4593;53.652;10.168;2023-06-22T07:30:31;3.87;;;2.63;;
9115;SDS011;4593;53.652;10.168;2023-06-22T07:32:58;4.63;;;2.47;;
9115;SDS011;4593;53.652;10.168;2023-06-22T07:35:25;3.00;;;2.67;;
9115;SDS011;4593;53.652;10.168;2023-06-22T07:37:51;4.87;;;2.63;;
9115;SDS011;4593;53.652;10.168;2023-06-22T07:40:16;8.67;;;2.73;;
9115;SDS011;4593;53.652;10.168;2023-06-22T07:42:42;3.67;;;2.63;;
9115;SDS011;4593;53.652;10.168;2023-06-22T07:45:09;3.90;;;2.63;;
9115;SDS011;4593;53.652;10.168;2023-06-22T07:47:34;3.63;;;2.90;;
9115;SDS011;4593;53.652;10.168;2023-06-22T07:50:00;2.67;;;2.30;;
9115;SDS011;4593;53.652;10.168;2023-06-22T07:52:27;5.20;;;2.63;;
9115;SDS011;4593;53.652;10.168;2023-06-22T07:54:54;3.27;;;2.50;;
9115;SDS011;4593;53.652;10.168;2023-06-22T07:57:20;3.80;;;2.37;;
9115;SDS011;4593;53.652;10.168;2023-06-22T07:59:45;4.83;;;2.57;;
9115;SDS011;4593;53.652;10.168;2023-06-22T08:02:11;5.73;;;2.63;;
9115;SDS011;4593;53.652;10.168;2023-06-22T08:04:37;3.10;;;2.73;;
9115;SDS011;4593;53.652;10.168;2023-06-22T08:07:03;2.97;;;2.37;;
9115;SDS011;4593;53.652;10.168;2023-06-22T08:09:30;3.47;;;2.70;;
9115;SDS011;4593;53.652;10.168;2023-06-22T08:11:57;2.93;;;2.50;;
9115;SDS011;4593;53.652;10.168;2023-06-22T08:14:25;2.73;;;2.33;;
9115;SDS011;4593;53.652;10.168;2023-06-22T08:16:51;3.50;;;2.40;;
9115;SDS011;4593;53.652;10.168;2023-06-22T08:19:16;3.00;;;2.70;;
9115;SDS011;4593;53.652;10.168;2023-06-22T08:21:42;4.00;;;2.63;;
9115;SDS011;4593;53.652;10.168;2023-06-22T08:24:08;3.80;;;2.50;;
9115;SDS011;4593;53.652;10.168;2023-06-22T08:26:34;3.67;;;2.60;;
9115;SDS011;4593;53.652;10.168;2023-06-22T08:29:02;4.23;;;2.33;;
9115;SDS011;4593;53.652;10.168;2023-06-22T08:31:28;5.10;;;2.83;;
9115;SDS011;4593;53.652;10.168;2023-06-22T08:33:54;4.10;;;2.50;;
9115;SDS011;4593;53.652;10.168;2023-06-22T08:36:20;3.60;;;2.40;;
9115;SDS011;4593;53.652;10.168;2023-06-22T08:38:46;2.97;;;2.60;;
9115;SDS011;4593;53.652;10.168;2023-06-22T08:41:15;5.93;;;2.53;;
9115;SDS011;4593;53.652;10.168;2023-06-22T08:43:41;3.60;;;2.90;;
9115;SDS011;4593;53.652;10.168;2023-06-22T08:46:08;3.37;;;2.80;;
9115;SDS011;4593;53.652;10.168;2023-06-22T08:48:33;3.80;;;2.70;;
9115;SDS011;4593;53.652;10.168;2023-06-22T08:50:59;2.30;;;2.07;;
9115;SDS011;4593;53.652;10.168;2023-06-22T08:53:25;6.10;;;2.40;;
9115;SDS011;4593;53.652;10.168;2023-06-22T08:55:50;2.77;;;2.40;;
9115;SDS011;4593;53.652;10.168;2023-06-22T08:58:16;3.23;;;2.57;;
9115;SDS011;4593;53.652;10.168;2023-06-22T09:00:43;3.60;;;2.57;;
9115;SDS011;4593;53.652;10.168;2023-06-22T09:03:08;3.77;;;2.23;;
9115;SDS011;4593;53.652;10.168;2023-06-22T09:05:34;4.23;;;2.30;;
9115;SDS011;4593;53.652;10.168;2023-06-22T09:08:02;4.70;;;2.63;;
9115;SDS011;4593;53.652;10.168;2023-06-22T09:10:27;3.10;;;2.40;;
9115;SDS011;4593;53.652;10.168;2023-06-22T09:12:53;3.20;;;2.33;;
9115;SDS011;4593;53.652;10.168;2023-06-22T09:15:19;2.60;;;2.30;;
9115;SDS011;4593;53.652;10.168;2023-06-22T09:17:44;2.57;;;2.27;;
9115;SDS011;4593;53.652;10.168;2023-06-22T09:20:11;2.30;;;2.10;;
9115;SDS011;4593;53.652;10.168;2023-06-22T09:22:37;3.50;;;2.50;;
9115;SDS011;4593;53.652;10.168;2023-06-22T09:25:04;3.43;;;2.70;;
9115;SDS011;4593;53.652;10.168;2023-06-22T09:27:30;3.03;;;2.20;;
9115;SDS011;4593;53.652;10.168;2023-06-22T09:29:55;5.47;;;3.00;;
9115;SDS011;4593;53.652;10.168;2023-06-22T09:32:23;4.70;;;2.77;;
9115;SDS011;4593;53.652;10.168;2023-06-22T09:34:49;3.43;;;2.23;;
9115;SDS011;4593;53.652;10.168;2023-06-22T09:37:15;3.33;;;2.83;;
9115;SDS011;4593;53.652;10.168;2023-06-22T09:39:41;4.07;;;2.47;;
9115;SDS011;4593;53.652;10.168;2023-06-22T09:42:07;5.10;;;2.30;;
9115;SDS011;4593;53.652;10.168;2023-06-22T09:44:33;3.00;;;2.30;;
9115;SDS011;4593;53.652;10.168;2023-06-22T09:46:58;8.60;;;2.80;;
9115;SDS011;4593;53.652;10.168;2023-06-22T09:49:24;2.43;;;2.17;;
9115;SDS011;4593;53.652;10.168;2023-06-22T09:51:51;3.57;;;2.83;;
9115;SDS011;4593;53.652;10.168;2023-06-22T09:54:17;3.97;;;2.60;;
9115;SDS011;4593;53.652;10.168;2023-06-22T09:56:43;4.23;;;2.77;;
9115;SDS011;4593;53.652;10.168;2023-06-22T09:59:09;3.87;;;2.53;;
9115;SDS011;4593;53.652;10.168;2023-06-22T10:01:34;4.37;;;2.70;;
9115;SDS011;4593;53.652;10.168;2023-06-22T10:04:01;6.93;;;2.50;;
9115;SDS011;4593;53.652;10.168;2023-06-22T10:06:27;2.53;;;2.27;;
9115;SDS011;4593;53.652;10.168;2023-06-22T10:08:53;3.33;;;2.37;;
9115;SDS011;4593;53.652;10.168;2023-06-22T10:11:19;5.60;;;2.60;;
9115;SDS011;4593;53.652;10.168;2023-06-22T10:13:44;3.70;;;2.70;;
9115;SDS011;4593;53.652;10.168;2023-06-22T10:16:10;5.57;;;3.03;;
9115;SDS011;4593;53.652;10.168;2023-06-22T10:18:35;2.80;;;2.50;;
9115;SDS011;4593;53.652;10.168;2023-06-22T10:21:01;4.97;;;2.60;;
9115;SDS011;4593;53.652;10.168;2023-06-22T10:23:27;3.53;;;2.73;;
9115;SDS011;4593;53.652;10.168;2023-06-22T10:25:53;3.03;;;2.70;;
9115;SDS011;4593;53.652;10.168;2023-06-22T10:28:18;3.63;;;2.60;;
9115;SDS011;4593;53.652;10.168;2023-06-22T10:30:44;4.53;;;2.67;;
9115;SDS011;4593;53.652;10.168;2023-06-22T10:33:10;3.17;;;2.63;;
9115;SDS011;4593;53.652;10.168;2023-06-22T10:35:36;3.00;;;2.70;;
9115;SDS011;4593;53.652;10.168;2023-06-22T10:38:03;2.83;;;2.33;;
9115;SDS011;4593;53.652;10.168;2023-06-22T10:40:29;3.80;;;2.90;;
9115;SDS011;4593;53.652;10.168;2023-06-22T10:42:55;2.73;;;2.20;;
9115;SDS011;4593;53.652;10.168;2023-06-22T10:45:21;4.18;;;2.75;;
9115;SDS011;4593;53.652;10.168;2023-06-22T10:47:47;3.28;;;2.70;;
9115;SDS011;4593;53.652;10.168;2023-06-22T10:50:13;5.38;;;2.60;;
9115;SDS011;4593;53.652;10.168;2023-06-22T10:52:38;4.57;;;3.10;;
9115;SDS011;4593;53.652;10.168;2023-06-22T10:55:05;3.47;;;2.60;;
9115;SDS011;4593;53.652;10.168;2023-06-22T10:57:31;4.57;;;2.67;;
9115;SDS011;4593;53.652;10.168;2023-06-22T10:59:56;2.87;;;2.57;;
9115;SDS011;4593;53.652;10.168;2023-06-22T11:02:23;5.13;;;3.17;;
9115;SDS011;4593;53.652;10.168;2023-06-22T11:04:49;3.77;;;2.87;;
9115;SDS011;4593;53.652;10.168;2023-06-22T11:07:15;3.47;;;2.97;;
9115;SDS011;4593;53.652;10.168;2023-06-22T11:09:42;3.00;;;2.70;;
9115;SDS011;4593;53.652;10.168;2023-06-22T11:12:08;3.03;;;2.73;;
9115;SDS011;4593;53.652;10.168;2023-06-22T11:14:34;3.93;;;2.90;;
9115;SDS011;4593;53.652;10.168;2023-06-22T11:17:00;8.30;;;3.50;;
9115;SDS011;4593;53.652;10.168;2023-06-22T11:19:25;4.10;;;3.17;;
9115;SDS011;4593;53.652;10.168;2023-06-22T11:21:51;4.07;;;2.87;;
9115;SDS011;4593;53.652;10.168;2023-06-22T11:24:17;4.53;;;2.97;;
9115;SDS011;4593;53.652;10.168;2023-06-22T11:26:42;3.97;;;3.00;;
9115;SDS011;4593;53.652;10.168;2023-06-22T11:29:08;3.20;;;2.90;;
9115;SDS011;4593;53.652;10.168;2023-06-22T11:31:35;4.10;;;2.80;;
9115;SDS011;4593;53.652;10.168;2023-06-22T11:34:01;4.17;;;3.43;;
9115;SDS011;4593;53.652;10.168;2023-06-22T11:36:26;4.10;;;3.00;;
9115;SDS011;4593;53.652;10.168;2023-06-22T11:38:54;4.07;;;3.43;;
9115;SDS011;4593;53.652;10.168;2023-06-22T11:41:20;4.40;;;2.93;;
9115;SDS011;4593;53.652;10.168;2023-06-22T11:43:45;5.30;;;3.13;;
9115;SDS011;4593;53.652;10.168;2023-06-22T11:46:11;4.40;;;2.90;;
9115;SDS011;4593;53.652;10.168;2023-06-22T11:48:37;3.37;;;3.00;;
9115;SDS011;4593;53.652;10.168;2023-06-22T11:51:03;3.33;;;2.73;;
9115;SDS011;4593;53.652;10.168;2023-06-22T11:53:28;5.25;;;3.25;;
9115;SDS011;4593;53.652;10.168;2023-06-22T11:55:54;3.85;;;3.15;;
9115;SDS011;4593;53.652;10.168;2023-06-22T11:58:21;5.43;;;3.20;;
9115;SDS011;4593;53.652;10.168;2023-06-22T12:00:47;4.13;;;3.58;;
9115;SDS011;4593;53.652;10.168;2023-06-22T12:03:13;3.60;;;3.28;;
9115;SDS011;4593;53.652;10.168;2023-06-22T12:05:39;5.55;;;3.47;;
9115;SDS011;4593;53.652;10.168;2023-06-22T12:08:05;3.28;;;2.92;;
9115;SDS011;4593;53.652;10.168;2023-06-22T12:10:31;3.88;;;2.95;;
9115;SDS011;4593;53.652;10.168;2023-06-22T12:12:57;3.30;;;3.00;;
9115;SDS011;4593;53.652;10.168;2023-06-22T12:15:24;5.07;;;3.28;;
9115;SDS011;4593;53.652;10.168;2023-06-22T12:17:51;4.88;;;3.38;;
9115;SDS011;4593;53.652;10.168;2023-06-22T12:20:17;6.00;;;3.70;;
9115;SDS011;4593;53.652;10.168;2023-06-22T12:22:43;4.20;;;3.30;;
9115;SDS011;4593;53.652;10.168;2023-06-22T12:25:08;4.33;;;3.10;;
9115;SDS011;4593;53.652;10.168;2023-06-22T12:27:35;3.50;;;3.20;;
9115;SDS011;4593;53.652;10.168;2023-06-22T12:30:00;3.67;;;3.33;;
9115;SDS011;4593;53.652;10.168;2023-06-22T12:32:26;6.43;;;3.73;;
9115;SDS011;4593;53.652;10.168;2023-06-22T12:34:52;3.43;;;3.10;;
9115;SDS011;4593;53.652;10.168;2023-06-22T12:37:18;5.37;;;3.40;;
9115;SDS011;4593;53.652;10.168;2023-06-22T12:39:44;6.37;;;3.00;;
9115;SDS011;4593;53.652;10.168;2023-06-22T12:42:10;7.40;;;3.30;;
9115;SDS011;4593;53.652;10.168;2023-06-22T12:44:39;5.13;;;3.30;;
9115;SDS011;4593;53.652;10.168;2023-06-22T12:47:06;4.93;;;3.37;;
9115;SDS011;4593;53.652;10.168;2023-06-22T12:49:33;4.93;;;3.43;;
9115;SDS011;4593;53.652;10.168;2023-06-22T12:52:00;4.47;;;3.07;;
9115;SDS011;4593;53.652;10.168;2023-06-22T12:54:26;4.20;;;3.50;;
9115;SDS011;4593;53.652;10.168;2023-06-22T12:56:53;4.53;;;3.47;;
9115;SDS011;4593;53.652;10.168;2023-06-22T12:59:18;3.63;;;3.10;;
9115;SDS011;4593;53.652;10.168;2023-06-22T13:01:44;3.38;;;3.03;;
9115;SDS011;4593;53.652;10.168;2023-06-22T13:04:11;5.07;;;3.80;;
9115;SDS011;4593;53.652;10.168;2023-06-22T13:06:39;4.20;;;3.60;;
9115;SDS011;4593;53.652;10.168;2023-06-22T13:09:06;3.88;;;3.17;;
9115;SDS011;4593;53.652;10.168;2023-06-22T13:11:31;3.35;;;2.97;;
9115;SDS011;4593;53.652;10.168;2023-06-22T13:13:57;3.55;;;3.25;;
9115;SDS011;4593;53.652;10.168;2023-06-22T13:16:23;4.15;;;3.47;;
9115;SDS011;4593;53.652;10.168;2023-06-22T13:18:49;4.20;;;3.60;;
9115;SDS011;4593;53.652;10.168;2023-06-22T13:21:14;3.72;;;3.20;;
9115;SDS011;4593;53.652;10.168;2023-06-22T13:23:40;5.70;;;3.20;;
9115;SDS011;4593;53.652;10.168;2023-06-22T13:26:05;6.90;;;3.35;;
9115;SDS011;4593;53.652;10.168;2023-06-22T13:28:32;3.33;;;2.80;;
9115;SDS011;4593;53.652;10.168;2023-06-22T13:30:57;4.70;;;3.60;;
9115;SDS011;4593;53.652;10.168;2023-06-22T13:33:23;3.88;;;3.20;;
9115;SDS011;4593;53.652;10.168;2023-06-22T13:35:49;5.13;;;3.97;;
9115;SDS011;4593;53.652;10.168;2023-06-22T13:38:15;4.03;;;3.25;;
9115;SDS011;4593;53.652;10.168;2023-06-22T13:40:40;3.13;;;2.83;;
9115;SDS011;4593;53.652;10.168;2023-06-22T13:43:06;4.55;;;3.65;;
9115;SDS011;4593;53.652;10.168;2023-06-22T13:45:32;4.65;;;3.65;;
9115;SDS011;4593;53.652;10.168;2023-06-22T13:47:57;4.82;;;3.47;;
9115;SDS011;4593;53.652;10.168;2023-06-22T13:50:23;5.07;;;3.60;;
9115;SDS011;4593;53.652;10.168;2023-06-22T13:52:49;5.60;;;3.70;;
9115;SDS011;4593;53.652;10.168;2023-06-22T13:55:15;4.22;;;3.35;;
9115;SDS011;4593;53.652;10.168;2023-06-22T13:57:41;4.43;;;3.53;;
9115;SDS011;4593;53.652;10.168;2023-06-22T14:00:08;3.75;;;3.33;;
9115;SDS011;4593;53.652;10.168;2023-06-22T14:02:35;3.60;;;3.30;;
9115;SDS011;4593;53.652;10.168;2023-06-22T14:05:00;4.07;;;3.65;;
9115;SDS011;4593;53.652;10.168;2023-06-22T14:07:27;6.85;;;3.50;;
9115;SDS011;4593;53.652;10.168;2023-06-22T14:09:53;6.00;;;3.80;;
9115;SDS011;4593;53.652;10.168;2023-06-22T14:12:18;4.00;;;3.17;;
9115;SDS011;4593;53.652;10.168;2023-06-22T14:14:44;6.00;;;3.58;;
9115;SDS011;4593;53.652;10.168;2023-06-22T14:17:10;4.57;;;3.05;;
9115;SDS011;4593;53.652;10.168;2023-06-22T14:19:36;4.65;;;3.78;;
9115;SDS011;4593;53.652;10.168;2023-06-22T14:22:02;4.75;;;3.83;;
9115;SDS011;4593;53.652;10.168;2023-06-22T14:24:27;3.95;;;3.42;;
9115;SDS011;4593;53.652;10.168;2023-06-22T14:26:56;4.03;;;3.35;;
9115;SDS011;4593;53.652;10.168;2023-06-22T14:29:22;6.30;;;3.65;;
9115;SDS011;4593;53.652;10.168;2023-06-22T14:31:48;6.18;;;3.67;;
9115;SDS011;4593;53.652;10.168;2023-06-22T14:34:14;5.28;;;3.97;;
9115;SDS011;4593;53.652;10.168;2023-06-22T14:36:41;5.50;;;3.97;;
9115;SDS011;4593;53.652;10.168;2023-06-22T14:39:07;3.92;;;3.53;;
9115;SDS011;4593;53.652;10.168;2023-06-22T14:41:33;5.03;;;3.50;;
9115;SDS011;4593;53.652;10.168;2023-06-22T14:43:59;4.03;;;3.10;;
9115;SDS011;4593;53.652;10.168;2023-06-22T14:46:25;4.15;;;3.60;;
9115;SDS011;4593;53.652;10.168;2023-06-22T14:48:52;4.35;;;3.53;;
9115;SDS011;4593;53.652;10.168;2023-06-22T14:51:18;4.05;;;3.40;;
9115;SDS011;4593;53.652;10.168;2023-06-22T14:53:44;4.25;;;3.45;;
9115;SDS011;4593;53.652;10.168;2023-06-22T14:56:11;3.67;;;3.38;;
9115;SDS011;4593;53.652;10.168;2023-06-22T14:58:38;4.43;;;4.03;;
9115;SDS011;4593;53.652;10.168;2023-06-22T15:01:06;4.50;;;3.60;;
9115;SDS011;4593;53.652;10.168;2023-06-22T15:03:33;3.83;;;3.20;;